Time;durP1;ratioP1;P1;durP2;ratioP2;P2;SDS_P1;SDS_P2;PMS_P1;PMS_P2;Temp;Humidity;BMP_temperature;BMP_pressure;BME280_temperature;BME280_humidity;BME280_pressure;Samples;Min_cycle;Max_cycle;Signal;HPM_P1;HPM_P2
2022/09/04 00:01:44;;;;;;;4.22;1.63;;;13.00;99.90;;;;;;5082191;28;20040;-35
2022/09/04 00:04:37;;;;;;;2.55;1.48;;;12.80;99.90;;;;;;5085152;28;20024;-32
2022/09/04 00:07:37;;;;;;;3.08;1.65;;;12.50;99.90;;;;;;5077155;28;20030;-33
2022/09/04 00:10:10;;;;;;;5.03;2.00;;;12.40;99.90;;;;;;5077618;28;20508;-33
2022/09/04 00:13:03;;;;;;;2.97;2.10;;;12.40;99.90;;;;;;5082228;28;20121;-34
2022/09/04 00:15:35;;;;;;;1.98;1.88;;;12.50;99.90;;;;;;5085749;28;20059;-35
2022/09/04 00:18:12;;;;;;;5.90;2.13;;;12.50;99.90;;;;;;5083657;28;20606;-34
2022/09/04 00:20:54;;;;;;;4.05;2.00;;;12.40;99.90;;;;;;5084857;28;20570;-34
2022/09/04 00:23:28;;;;;;;1.67;1.48;;;12.30;99.90;;;;;;5082377;28;20240;-34
2022/09/04 00:26:23;;;;;;;3.00;1.80;;;12.20;99.90;;;;;;5084541;28;20032;-33
2022/09/04 00:28:54;;;;;;;1.40;1.30;;;12.20;99.90;;;;;;5080612;28;20032;-32
2022/09/04 00:31:42;;;;;;;2.75;1.50;;;12.40;99.90;;;;;;5082738;28;20562;-35
2022/09/04 00:34:24;;;;;;;1.83;1.55;;;12.40;99.90;;;;;;5083401;28;20637;-32
2022/09/04 00:36:54;;;;;;;2.00;1.67;;;12.30;99.90;;;;;;5077971;28;20035;-32
2022/09/04 00:39:42;;;;;;;2.45;1.92;;;12.30;99.90;;;;;;5082415;28;20028;-32
2022/09/04 00:42:31;;;;;;;2.53;1.92;;;12.50;99.90;;;;;;5083943;28;20063;-33
2022/09/04 00:45:41;;;;;;;1.70;1.60;;;12.60;99.90;;;;;;5084114;28;20449;-33
2022/09/04 00:48:30;;;;;;;1.70;1.58;;;12.70;99.90;;;;;;5072811;28;20098;-33
2022/09/04 00:51:13;;;;;;;2.90;1.55;;;12.70;99.90;;;;;;5087456;28;20378;-32
2022/09/04 00:54:14;;;;;;;1.55;1.45;;;12.60;99.90;;;;;;5084664;28;20089;-35
2022/09/04 00:56:58;;;;;;;3.42;3.13;;;12.60;99.90;;;;;;5084055;28;20036;-35
2022/09/04 00:59:44;;;;;;;3.80;1.83;;;12.50;99.90;;;;;;5085655;28;20067;-33
2022/09/04 01:02:16;;;;;;;2.72;1.80;;;12.60;99.90;;;;;;5085029;28;20113;-34
2022/09/04 01:04:56;;;;;;;1.92;1.83;;;12.50;99.90;;;;;;5079525;28;20039;-33
2022/09/04 01:07:36;;;;;;;3.28;2.25;;;12.60;99.90;;;;;;5079588;28;20047;-36
2022/09/04 01:10:19;;;;;;;3.17;1.80;;;12.60;99.90;;;;;;5067150;28;20077;-35
2022/09/04 01:12:45;;;;;;;1.88;1.77;;;12.50;99.90;;;;;;5078715;28;20020;-38
2022/09/04 01:15:18;;;;;;;2.58;2.20;;;12.40;99.90;;;;;;5082153;28;20056;-33
2022/09/04 01:18:19;;;;;;;3.35;2.20;;;12.50;99.90;;;;;;5080729;28;20050;-33
2022/09/04 01:21:07;;;;;;;2.38;1.52;;;12.40;99.90;;;;;;5056063;28;20046;-38
2022/09/04 01:23:41;;;;;;;1.80;1.70;;;12.50;99.90;;;;;;5078239;28;20061;-32
2022/09/04 01:26:10;;;;;;;1.58;1.48;;;12.60;99.90;;;;;;5080203;28;20116;-33
2022/09/04 01:28:43;;;;;;;;;;;12.70;99.90;;;;;;5086456;28;20024;-35
2022/09/04 01:31:14;;;;;;;5.75;1.90;;;12.70;99.90;;;;;;5078124;28;19943;-35
2022/09/04 01:34:00;;;;;;;1.73;1.40;;;12.60;99.90;;;;;;5083498;28;20229;-34
2022/09/04 01:36:46;;;;;;;1.83;1.50;;;12.20;99.90;;;;;;5086480;28;20508;-32
2022/09/04 01:39:12;;;;;;;1.50;1.20;;;12.20;99.90;;;;;;5085243;28;20028;-34
2022/09/04 01:41:43;;;;;;;1.83;1.45;;;12.30;99.90;;;;;;5086966;28;20024;-33
2022/09/04 01:44:10;;;;;;;2.42;1.70;;;12.30;99.90;;;;;;5088459;28;20043;-33
2022/09/04 01:47:10;;;;;;;1.60;1.50;;;12.30;99.90;;;;;;5080448;28;20035;-35
2022/09/04 01:49:42;;;;;;;2.03;1.40;;;12.50;99.90;;;;;;5085053;28;20045;-33
2022/09/04 01:52:27;;;;;;;1.40;1.30;;;12.50;99.90;;;;;;5084080;28;20020;-32
2022/09/04 01:55:02;;;;;;;1.90;1.45;;;12.40;99.90;;;;;;5084021;28;20104;-33
2022/09/04 01:57:48;;;;;;;1.45;1.20;;;12.50;99.90;;;;;;5080061;28;20068;-33
2022/09/04 02:00:21;;;;;;;1.40;1.30;;;12.60;99.90;;;;;;5082499;28;20043;-34
2022/09/04 02:03:12;;;;;;;1.50;1.40;;;12.60;99.90;;;;;;5084920;28;20043;-33
2022/09/04 02:05:53;;;;;;;2.28;1.52;;;12.60;99.90;;;;;;5083995;28;20039;-34
2022/09/04 02:08:54;;;;;;;3.50;1.60;;;12.50;99.90;;;;;;5082649;28;20024;-35
2022/09/04 02:11:25;;;;;;;1.83;1.73;;;12.50;99.90;;;;;;5055719;28;20566;-34
2022/09/04 02:14:35;;;;;;;2.17;1.75;;;12.60;99.90;;;;;;5086561;28;20024;-33
2022/09/04 02:17:17;;;;;;;2.47;1.52;;;12.60;99.90;;;;;;5081748;28;20032;-34
2022/09/04 02:19:46;;;;;;;1.67;1.58;;;12.70;99.90;;;;;;5080241;28;20052;-35
2022/09/04 02:22:22;;;;;;;1.83;1.73;;;12.70;99.90;;;;;;5084114;28;20028;-35
2022/09/04 02:25:03;;;;;;;1.10;1.10;;;12.60;99.90;;;;;;5085780;28;20034;-34
2022/09/04 02:27:45;;;;;;;1.85;1.50;;;12.60;99.90;;;;;;5084805;28;20032;-34
2022/09/04 02:30:15;;;;;;;3.47;1.50;;;12.60;99.90;;;;;;5069028;28;20468;-33
2022/09/04 02:33:01;;;;;;;1.40;1.30;;;12.60;99.90;;;;;;5084570;28;20082;-34
2022/09/04 02:35:37;;;;;;;2.03;1.55;;;12.60;99.90;;;;;;5079778;28;20427;-32
2022/09/04 02:38:10;;;;;;;1.50;1.40;;;12.60;99.90;;;;;;5076774;28;20028;-32
2022/09/04 02:41:03;;;;;;;4.28;1.60;;;12.50;99.90;;;;;;5086572;28;20127;-33
2022/09/04 02:43:55;;;;;;;1.50;1.40;;;12.40;99.90;;;;;;5080582;28;20064;-34
2022/09/04 02:46:53;;;;;;;1.52;1.42;;;12.40;99.90;;;;;;5081689;28;20028;-34
2022/09/04 02:49:38;;;;;;;;;;;12.10;99.90;;;;;;5073991;28;20524;-34
2022/09/04 02:52:13;;;;;;;1.58;1.48;;;12.00;99.90;;;;;;5080450;28;19912;-32
2022/09/04 02:55:17;;;;;;;1.70;1.50;;;11.80;99.90;;;;;;5079020;28;20544;-32
2022/09/04 02:58:00;;;;;;;3.45;1.35;;;11.90;99.90;;;;;;5080402;28;20070;-32
2022/09/04 03:00:42;;;;;;;2.35;1.40;;;11.90;99.90;;;;;;5080252;28;20314;-33
2022/09/04 03:03:22;;;;;;;1.67;1.52;;;12.00;99.90;;;;;;5082260;28;20078;-36
2022/09/04 03:06:10;;;;;;;2.92;1.65;;;12.00;99.90;;;;;;5081954;28;20056;-32
2022/09/04 03:08:52;;;;;;;1.45;1.33;;;12.00;99.90;;;;;;5075727;28;20036;-33
2022/09/04 03:11:37;;;;;;;1.45;1.35;;;12.10;99.90;;;;;;5077477;28;20816;-32
2022/09/04 03:14:11;;;;;;;2.60;1.42;;;12.10;99.90;;;;;;5081574;28;20357;-34
2022/09/04 03:16:44;;;;;;;2.05;1.70;;;12.10;99.90;;;;;;5079752;28;20028;-32
2022/09/04 03:19:12;;;;;;;1.45;1.35;;;12.00;99.90;;;;;;5084856;28;20476;-35
2022/09/04 03:21:40;;;;;;;1.52;1.42;;;12.00;99.90;;;;;;5079571;28;20043;-34
2022/09/04 03:24:15;;;;;;;1.55;1.45;;;12.00;99.90;;;;;;5081698;28;20396;-32
2022/09/04 03:26:51;;;;;;;1.35;1.30;;;12.10;99.90;;;;;;5080219;28;20032;-32
2022/09/04 03:29:31;;;;;;;1.60;1.50;;;12.10;99.90;;;;;;5085870;28;20032;-32
2022/09/04 03:32:02;;;;;;;1.58;1.48;;;12.10;99.90;;;;;;5078383;28;20028;-32
2022/09/04 03:34:31;;;;;;;1.48;1.38;;;12.10;99.90;;;;;;5085366;28;20085;-33
2022/09/04 03:37:09;;;;;;;1.65;1.50;;;12.20;99.90;;;;;;5084893;28;20377;-32
2022/09/04 03:40:02;;;;;;;1.55;1.30;;;12.20;99.90;;;;;;5078153;28;20023;-36
2022/09/04 03:43:05;;;;;;;2.13;1.30;;;12.20;99.90;;;;;;5066675;28;20039;-33
2022/09/04 03:45:36;;;;;;;1.75;1.27;;;12.20;99.90;;;;;;5060144;28;20036;-34
2022/09/04 03:48:20;;;;;;;2.75;1.00;;;12.30;99.90;;;;;;5083621;28;20028;-32
2022/09/04 03:51:07;;;;;;;1.52;1.42;;;12.20;99.90;;;;;;5080910;28;20329;-36
2022/09/04 03:53:44;;;;;;;2.95;1.10;;;12.10;99.90;;;;;;5085114;28;20027;-32
2022/09/04 03:56:36;;;;;;;6.13;1.20;;;12.10;99.90;;;;;;5083344;28;20105;-32
2022/09/04 03:59:23;;;;;;;1.27;1.10;;;11.90;99.90;;;;;;5083025;28;20059;-32
2022/09/04 04:02:19;;;;;;;0.85;0.85;;;11.50;99.90;;;;;;5074861;28;20032;-32
2022/09/04 04:04:55;;;;;;;1.10;1.10;;;11.40;99.90;;;;;;5075318;28;20374;-32
2022/09/04 04:07:31;;;;;;;1.42;1.20;;;11.40;99.90;;;;;;5081440;28;20131;-33
2022/09/04 04:10:12;;;;;;;1.10;1.00;;;11.30;99.90;;;;;;5085972;28;20024;-34
2022/09/04 04:12:50;;;;;;;1.30;1.20;;;11.30;99.90;;;;;;5065777;28;20055;-33
2022/09/04 04:15:23;;;;;;;1.20;1.20;;;11.30;99.90;;;;;;5084183;28;20020;-34
2022/09/04 04:18:23;;;;;;;2.42;1.48;;;11.40;99.90;;;;;;5083623;28;20032;-33
2022/09/04 04:20:53;;;;;;;1.52;1.42;;;11.40;99.90;;;;;;5085001;28;20048;-32
2022/09/04 04:23:37;;;;;;;1.40;1.30;;;11.40;99.90;;;;;;5081488;28;20135;-31
2022/09/04 04:26:21;;;;;;;1.10;1.10;;;11.40;99.90;;;;;;5083879;28;20054;-34
2022/09/04 04:28:58;;;;;;;1.42;1.33;;;11.30;99.90;;;;;;5082941;28;20038;-32
2022/09/04 04:31:33;;;;;;;1.10;1.08;;;11.30;99.90;;;;;;5083522;28;20542;-37
2022/09/04 04:34:07;;;;;;;5.45;1.15;;;11.30;99.90;;;;;;5088837;28;20044;-34
2022/09/04 04:36:58;;;;;;;2.55;1.02;;;11.20;99.90;;;;;;5071138;28;20405;-33
2022/09/04 04:39:43;;;;;;;0.90;0.90;;;11.10;99.90;;;;;;5077257;28;20504;-33
2022/09/04 04:42:36;;;;;;;3.58;1.00;;;11.20;99.90;;;;;;5065781;28;20360;-32
2022/09/04 04:48:19;;;;;;;0.60;0.60;;;11.00;99.90;;;;;;5085585;28;20443;-32
2022/09/04 04:51:04;;;;;;;0.70;0.70;;;11.00;99.90;;;;;;5080353;28;20024;-35
2022/09/04 04:54:12;;;;;;;0.85;0.80;;;11.20;99.90;;;;;;5083865;28;21513;-32
2022/09/04 04:56:49;;;;;;;0.60;0.60;;;11.30;99.90;;;;;;5036555;28;20029;-34
2022/09/04 04:59:46;;;;;;;0.80;0.80;;;11.30;99.90;;;;;;5075083;28;20107;-31
2022/09/04 05:02:30;;;;;;;1.30;1.20;;;11.40;99.90;;;;;;5081831;28;20397;-33
2022/09/04 05:05:48;;;;;;;2.00;1.30;;;11.40;99.90;;;;;;5079853;28;20028;-35
2022/09/04 05:08:17;;;;;;;1.17;1.15;;;11.40;99.90;;;;;;5052101;28;20485;-35
2022/09/04 05:10:47;;;;;;;1.40;1.30;;;11.40;99.90;;;;;;5081066;28;20077;-32
2022/09/04 05:13:36;;;;;;;1.70;1.60;;;11.40;99.90;;;;;;5082865;28;20020;-33
2022/09/04 05:16:34;;;;;;;2.03;1.30;;;11.50;99.90;;;;;;5082938;28;20056;-32
2022/09/04 05:19:22;;;;;;;1.20;1.20;;;11.60;99.90;;;;;;5085530;28;20511;-32
2022/09/04 05:22:12;;;;;;;1.42;1.33;;;11.70;99.90;;;;;;5078474;28;20040;-32
2022/09/04 05:25:02;;;;;;;1.38;1.13;;;11.80;99.90;;;;;;5080641;28;20402;-34
2022/09/04 05:27:39;;;;;;;1.00;1.00;;;11.70;99.90;;;;;;5081441;28;20031;-32
2022/09/04 05:30:14;;;;;;;0.77;0.77;;;11.70;99.90;;;;;;5088129;28;20055;-32
2022/09/04 05:32:48;;;;;;;0.90;0.90;;;11.80;99.90;;;;;;5082027;28;20036;-34
2022/09/04 05:35:39;;;;;;;1.10;1.00;;;11.80;99.90;;;;;;5083962;28;20623;-33
2022/09/04 05:38:17;;;;;;;0.75;0.75;;;11.60;99.90;;;;;;5084925;28;20477;-33
2022/09/04 05:41:01;;;;;;;0.77;0.77;;;11.50;99.90;;;;;;5083652;28;20452;-32
2022/09/04 05:43:55;;;;;;;1.17;1.10;;;11.60;99.90;;;;;;5087261;28;20031;-31
2022/09/04 05:46:48;;;;;;;1.25;1.17;;;11.40;99.90;;;;;;5081102;28;20047;-31
2022/09/04 05:49:44;;;;;;;1.20;1.10;;;11.40;99.90;;;;;;5077759;28;20065;-34
2022/09/04 05:52:28;;;;;;;1.85;1.15;;;11.50;99.90;;;;;;5084524;28;20020;-34
2022/09/04 05:55:17;;;;;;;1.40;1.30;;;11.70;99.90;;;;;;5069260;28;20089;-35
2022/09/04 05:58:00;;;;;;;1.85;1.35;;;12.00;99.90;;;;;;5083207;28;20016;-34
2022/09/04 06:00:40;;;;;;;1.73;1.42;;;12.10;99.90;;;;;;5083622;28;20024;-32
2022/09/04 06:03:37;;;;;;;1.60;1.50;;;12.30;99.90;;;;;;5085744;28;20036;-32
2022/09/04 06:06:36;;;;;;;3.03;1.80;;;12.50;99.90;;;;;;5060774;28;20032;-34
2022/09/04 06:09:28;;;;;;;2.42;2.00;;;12.70;99.90;;;;;;5084890;28;20044;-34
2022/09/04 06:12:18;;;;;;;2.05;1.85;;;12.70;99.90;;;;;;5080528;28;20043;-31
2022/09/04 06:15:02;;;;;;;2.22;1.58;;;12.80;99.90;;;;;;5082586;28;20444;-35
2022/09/04 06:17:36;;;;;;;1.77;1.60;;;12.80;99.90;;;;;;5079621;28;20040;-34
2022/09/04 06:20:18;;;;;;;2.00;1.85;;;12.90;99.90;;;;;;5085162;28;20082;-32
2022/09/04 06:23:05;;;;;;;1.67;1.58;;;13.10;99.90;;;;;;5085462;28;20084;-33
2022/09/04 06:26:07;;;;;;;2.05;1.85;;;13.20;99.90;;;;;;5083696;28;20508;-32
2022/09/04 06:28:54;;;;;;;3.15;1.90;;;13.30;99.90;;;;;;5065405;28;20041;-30
2022/09/04 06:31:20;;;;;;;3.60;1.90;;;13.40;99.90;;;;;;5081770;28;20500;-32
2022/09/04 06:34:10;;;;;;;2.25;1.80;;;13.60;99.90;;;;;;5081658;28;20032;-34
2022/09/04 06:36:50;;;;;;;2.28;2.10;;;13.80;99.90;;;;;;5083037;28;20397;-32
2022/09/04 06:39:35;;;;;;;1.65;1.55;;;14.00;99.90;;;;;;5085144;28;20024;-32
2022/09/04 06:42:20;;;;;;;4.40;2.20;;;14.10;99.90;;;;;;5084772;28;20084;-33
2022/09/04 06:45:02;;;;;;;2.33;1.98;;;14.20;99.90;;;;;;5081400;28;20035;-33
2022/09/04 06:47:40;;;;;;;1.92;1.77;;;14.40;99.90;;;;;;5079035;28;20097;-33
2022/09/04 06:50:14;;;;;;;;;;;14.50;99.90;;;;;;5083295;28;20031;-32
2022/09/04 06:52:54;;;;;;;4.47;2.17;;;14.60;99.90;;;;;;5067461;28;20022;-34
2022/09/04 06:55:27;;;;;;;3.58;1.92;;;14.60;99.90;;;;;;5079091;28;20400;-32
2022/09/04 06:58:31;;;;;;;2.10;1.90;;;14.70;99.90;;;;;;5080132;28;20386;-34
2022/09/04 07:01:12;;;;;;;2.25;1.85;;;14.90;99.90;;;;;;5081044;28;20036;-32
2022/09/04 07:03:40;;;;;;;2.50;2.20;;;15.00;99.90;;;;;;5084048;28;20024;-32
2022/09/04 07:06:20;;;;;;;;;;;15.20;99.90;;;;;;5080727;28;20028;-32
2022/09/04 07:09:14;;;;;;;2.30;1.75;;;15.20;99.90;;;;;;5081920;28;19915;-32
2022/09/04 07:11:58;;;;;;;1.75;1.58;;;15.30;99.90;;;;;;5072765;28;20027;-32
2022/09/04 07:14:30;;;;;;;2.33;1.65;;;15.50;99.90;;;;;;5083170;28;20097;-33
2022/09/04 07:17:04;;;;;;;2.35;1.98;;;15.70;99.90;;;;;;5084690;28;20443;-32
2022/09/04 07:19:46;;;;;;;2.15;2.00;;;15.80;99.90;;;;;;5084971;28;20036;-32
2022/09/04 07:22:30;;;;;;;2.00;1.70;;;16.00;99.90;;;;;;5083185;28;20040;-36
2022/09/04 07:25:21;;;;;;;2.58;1.80;;;16.20;99.90;;;;;;5084587;28;20028;-32
2022/09/04 07:27:58;;;;;;;2.63;2.10;;;16.40;99.90;;;;;;5085833;28;20081;-31
2022/09/04 07:30:28;;;;;;;3.10;2.20;;;16.60;99.90;;;;;;5083012;28;20027;-33
2022/09/04 07:33:00;;;;;;;2.50;2.15;;;16.90;99.90;;;;;;5069165;28;20093;-31
2022/09/04 07:36:13;;;;;;;2.30;2.10;;;17.00;99.90;;;;;;5079026;28;20016;-32
2022/09/04 07:38:51;;;;;;;2.83;1.80;;;17.20;99.90;;;;;;5084096;28;20035;-33
2022/09/04 07:41:38;;;;;;;2.65;2.10;;;17.40;99.90;;;;;;5084470;28;20028;-32
2022/09/04 07:44:14;;;;;;;2.38;2.20;;;17.40;99.90;;;;;;5085675;28;20027;-31
2022/09/04 07:47:04;;;;;;;4.57;2.08;;;17.40;99.90;;;;;;5074141;28;20024;-31
2022/09/04 07:49:41;;;;;;;2.80;2.28;;;17.50;99.90;;;;;;5082677;28;20032;-33
2022/09/04 07:52:20;;;;;;;3.07;2.23;;;17.70;99.90;;;;;;5081242;28;21276;-32
2022/09/04 07:55:13;;;;;;;3.28;2.45;;;17.80;99.90;;;;;;5082178;28;20339;-32
2022/09/04 07:58:18;;;;;;;2.25;1.88;;;17.90;99.90;;;;;;5085180;28;20040;-32
2022/09/04 08:01:02;;;;;;;2.28;2.08;;;18.10;99.90;;;;;;5083074;28;20028;-32
2022/09/04 08:03:48;;;;;;;2.30;2.10;;;18.10;99.90;;;;;;5081730;28;20039;-32
2022/09/04 08:06:22;;;;;;;2.70;2.40;;;18.40;99.90;;;;;;5082005;28;20074;-33
2022/09/04 08:09:10;;;;;;;2.78;2.50;;;18.20;99.90;;;;;;5084512;28;20568;-32
2022/09/04 08:11:38;;;;;;;2.53;2.22;;;18.20;99.90;;;;;;5081742;28;20024;-33
2022/09/04 08:14:22;;;;;;;3.10;2.60;;;18.40;99.90;;;;;;5083318;28;20043;-31
2022/09/04 08:17:19;;;;;;;3.17;2.17;;;18.70;99.90;;;;;;5082329;28;20054;-36
2022/09/04 08:19:51;;;;;;;2.97;2.17;;;18.80;99.90;;;;;;5083040;28;20532;-35
2022/09/04 08:22:35;;;;;;;5.05;2.58;;;19.10;99.90;;;;;;5081716;28;20070;-37
2022/09/04 08:25:01;;;;;;;2.53;2.15;;;19.10;99.90;;;;;;5083774;28;20415;-31
2022/09/04 08:27:49;;;;;;;2.40;2.10;;;19.00;99.90;;;;;;5083433;28;20028;-34
2022/09/04 08:30:17;;;;;;;;;;;19.00;99.90;;;;;;5082653;28;20500;-31
2022/09/04 08:33:02;;;;;;;2.70;2.38;;;19.40;99.90;;;;;;5083606;28;19908;-33
2022/09/04 08:35:52;;;;;;;4.03;2.30;;;19.70;99.90;;;;;;5082495;28;20052;-32
2022/09/04 08:38:29;;;;;;;3.10;2.10;;;19.90;99.90;;;;;;5084218;28;20020;-32
2022/09/04 08:41:44;;;;;;;3.20;2.40;;;19.90;99.90;;;;;;5083792;28;20063;-33
2022/09/04 08:44:37;;;;;;;2.88;2.55;;;19.90;99.90;;;;;;5082404;28;20069;-31
2022/09/04 08:47:21;;;;;;;4.57;2.45;;;20.20;99.90;;;;;;5083948;28;20024;-32
2022/09/04 08:49:55;;;;;;;3.85;2.40;;;20.30;99.90;;;;;;5081543;28;20024;-33
2022/09/04 08:52:58;;;;;;;3.55;2.53;;;20.40;99.90;;;;;;5084171;28;20025;-32
2022/09/04 08:56:05;;;;;;;2.90;2.70;;;20.60;99.90;;;;;;5081542;28;20432;-31
2022/09/04 08:58:51;;;;;;;2.80;2.40;;;20.40;99.90;;;;;;5078555;28;20324;-31
2022/09/04 09:01:53;;;;;;;3.15;2.60;;;20.60;99.90;;;;;;5080861;28;20035;-34
2022/09/04 09:04:35;;;;;;;2.22;1.95;;;20.80;99.90;;;;;;5088171;28;20055;-34
2022/09/04 09:07:38;;;;;;;3.25;2.28;;;20.70;99.90;;;;;;5081865;28;20333;-32
2022/09/04 09:10:41;;;;;;;2.83;2.30;;;20.60;99.90;;;;;;5083401;28;20059;-31
2022/09/04 09:13:42;;;;;;;2.88;2.33;;;20.80;99.90;;;;;;5087410;28;20028;-34
2022/09/04 09:16:43;;;;;;;4.30;2.55;;;21.10;99.90;;;;;;5072381;28;20036;-33
2022/09/04 09:19:08;;;;;;;5.93;2.38;;;21.60;99.90;;;;;;5039797;28;20136;-34
2022/09/04 09:22:09;;;;;;;2.55;2.35;;;21.70;99.90;;;;;;5083513;28;20193;-34
2022/09/04 09:25:06;;;;;;;2.92;2.60;;;21.80;99.90;;;;;;5085309;28;20028;-31
2022/09/04 09:27:50;;;;;;;2.58;2.38;;;21.70;99.90;;;;;;5080321;28;20056;-34
2022/09/04 09:30:21;;;;;;;2.45;2.13;;;21.50;99.90;;;;;;5080513;28;20494;-31
2022/09/04 09:32:58;;;;;;;2.53;1.92;;;21.80;99.90;;;;;;5079608;28;20027;-32
2022/09/04 09:36:03;;;;;;;2.63;1.88;;;21.80;99.90;;;;;;5088584;28;20024;-35
2022/09/04 09:39:26;;;;;;;2.72;2.30;;;21.60;99.90;;;;;;5083035;28;20036;-31
2022/09/04 09:42:25;;;;;;;2.50;2.30;;;22.10;99.90;;;;;;5002778;28;20037;-34
2022/09/04 09:45:02;;;;;;;2.03;1.83;;;22.20;99.90;;;;;;4992049;28;20077;-34
2022/09/04 09:47:36;;;;;;;1.90;1.80;;;22.40;99.90;;;;;;5065684;28;20113;-33
2022/09/04 09:50:27;;;;;;;2.25;2.05;;;22.30;99.90;;;;;;5085231;28;20028;-32
2022/09/04 09:53:25;;;;;;;2.38;2.15;;;22.60;99.90;;;;;;5066872;28;20069;-32
2022/09/04 09:56:21;;;;;;;2.15;1.92;;;23.10;99.90;;;;;;5078344;28;20016;-33
2022/09/04 09:59:28;;;;;;;2.00;1.80;;;23.60;99.90;;;;;;5085415;28;20369;-32
2022/09/04 10:02:36;;;;;;;2.40;1.85;;;22.50;99.20;;;;;;5065702;28;20031;-36
2022/09/04 10:05:11;;;;;;;1.60;1.45;;;22.70;99.90;;;;;;5083742;28;20036;-34
2022/09/04 10:08:13;;;;;;;1.70;1.60;;;22.70;97.50;;;;;;5082019;28;20225;-33
2022/09/04 10:10:57;;;;;;;3.75;1.70;;;23.20;98.90;;;;;;5078204;28;20430;-31
2022/09/04 10:13:25;;;;;;;3.33;1.80;;;23.70;96.60;;;;;;5084602;28;20059;-31
2022/09/04 10:16:25;;;;;;;2.55;1.70;;;23.10;95.20;;;;;;5087150;28;20461;-31
2022/09/04 10:19:11;;;;;;;2.72;1.40;;;22.80;97.10;;;;;;5085662;28;20020;-31
2022/09/04 10:22:14;;;;;;;2.22;1.98;;;22.80;97.00;;;;;;5086056;28;20689;-31
2022/09/04 10:25:15;;;;;;;2.00;1.70;;;23.00;97.80;;;;;;5078070;28;20089;-30
2022/09/04 10:28:19;;;;;;;2.28;1.60;;;23.40;97.20;;;;;;5087981;28;20377;-32
2022/09/04 10:31:17;;;;;;;2.25;1.48;;;23.70;91.00;;;;;;5086380;28;20039;-31
2022/09/04 10:34:11;;;;;;;1.60;1.50;;;23.20;88.30;;;;;;5084521;28;20032;-31
2022/09/04 10:36:53;;;;;;;1.42;1.33;;;22.90;93.50;;;;;;5085878;28;20032;-31
2022/09/04 10:42:28;;;;;;;2.15;1.60;;;23.00;80.70;;;;;;5085457;28;20086;-31
2022/09/04 10:45:07;;;;;;;1.60;1.20;;;23.60;90.90;;;;;;5086785;28;20024;-34
2022/09/04 10:47:32;;;;;;;1.52;1.42;;;23.90;83.60;;;;;;5082901;28;20282;-31
2022/09/04 10:50:27;;;;;;;1.83;1.15;;;23.60;84.30;;;;;;5084674;28;20055;-33
2022/09/04 10:53:13;;;;;;;1.40;1.30;;;23.20;83.00;;;;;;5073185;28;20051;-34
2022/09/04 10:56:00;;;;;;;1.25;1.20;;;23.60;83.60;;;;;;5083352;28;20024;-32
2022/09/04 10:59:09;;;;;;;1.50;1.40;;;23.20;90.60;;;;;;5085433;28;20024;-32
2022/09/04 11:02:36;;;;;;;1.10;1.10;;;23.30;85.60;;;;;;5033194;28;20089;-33
2022/09/04 11:05:22;;;;;;;1.30;1.20;;;23.50;90.20;;;;;;5016289;28;20041;-34
2022/09/04 11:08:14;;;;;;;1.70;1.45;;;23.40;90.60;;;;;;5020535;28;20072;-32
2022/09/04 11:11:02;;;;;;;1.60;1.35;;;23.70;92.10;;;;;;5069149;28;20040;-33
2022/09/04 11:14:05;;;;;;;1.67;1.40;;;23.90;90.60;;;;;;5079518;28;20032;-31
2022/09/04 11:16:57;;;;;;;2.25;1.50;;;23.80;90.10;;;;;;5083481;28;20043;-31
2022/09/04 11:19:47;;;;;;;3.08;1.45;;;23.80;91.20;;;;;;5083499;28;20027;-31
2022/09/04 11:22:50;;;;;;;1.45;1.35;;;23.80;87.30;;;;;;5085128;28;20035;-32
2022/09/04 11:25:32;;;;;;;1.42;1.33;;;23.70;86.50;;;;;;5084397;28;20050;-31
2022/09/04 11:28:18;;;;;;;1.35;1.30;;;23.60;83.70;;;;;;5084938;28;20035;-31
2022/09/04 11:31:02;;;;;;;1.65;1.40;;;23.80;86.90;;;;;;5083825;28;20491;-31
2022/09/04 11:34:00;;;;;;;3.50;1.55;;;23.90;85.50;;;;;;5083776;28;20027;-34
2022/09/04 11:36:34;;;;;;;2.60;1.20;;;24.10;82.40;;;;;;5085878;28;20121;-31
2022/09/04 11:39:24;;;;;;;4.05;1.40;;;24.30;81.20;;;;;;5066405;28;20036;-33
2022/09/04 11:41:53;;;;;;;1.27;1.17;;;24.30;73.80;;;;;;5080756;28;20028;-30
2022/09/04 11:44:59;;;;;;;1.95;1.30;;;23.90;73.20;;;;;;5082218;28;20043;-32
2022/09/04 11:47:47;;;;;;;1.80;1.33;;;23.80;79.10;;;;;;5062304;28;20452;-36
2022/09/04 11:50:49;;;;;;;2.35;1.30;;;23.90;81.00;;;;;;5081677;28;20062;-36
2022/09/04 11:53:40;;;;;;;1.70;1.30;;;24.20;85.00;;;;;;5080525;28;20036;-31
2022/09/04 11:56:24;;;;;;;4.70;1.20;;;24.20;78.30;;;;;;5085340;28;20391;-31
2022/09/04 11:59:11;;;;;;;2.67;1.23;;;24.10;74.80;;;;;;5080416;28;20111;-32
2022/09/04 12:02:06;;;;;;;1.30;1.20;;;23.90;71.30;;;;;;5083414;28;20063;-34
2022/09/04 12:04:37;;;;;;;1.05;1.00;;;23.70;74.40;;;;;;5083222;28;20096;-31
2022/09/04 12:07:12;;;;;;;2.05;1.30;;;23.70;70.50;;;;;;5083595;28;20031;-31
2022/09/04 12:10:15;;;;;;;2.10;1.20;;;23.60;69.90;;;;;;5082707;28;20543;-33
2022/09/04 12:13:05;;;;;;;1.85;1.30;;;23.40;73.30;;;;;;5081895;28;20016;-33
2022/09/04 12:15:53;;;;;;;2.78;1.27;;;23.50;80.60;;;;;;5077590;28;20024;-32
2022/09/04 12:18:53;;;;;;;2.40;1.30;;;23.40;71.80;;;;;;5084439;28;20464;-31
2022/09/04 12:21:39;;;;;;;1.63;1.08;;;23.60;74.90;;;;;;5084196;28;20044;-31
2022/09/04 12:24:33;;;;;;;3.40;1.20;;;23.70;73.00;;;;;;5081310;28;20035;-31
2022/09/04 12:27:36;;;;;;;1.65;1.40;;;23.70;68.30;;;;;;5067277;28;20036;-33
2022/09/04 12:30:20;;;;;;;1.58;1.00;;;23.70;71.60;;;;;;5083024;28;20028;-33
2022/09/04 12:33:41;;;;;;;1.45;1.10;;;23.70;69.10;;;;;;5082884;28;20028;-32
2022/09/04 12:36:19;;;;;;;2.00;1.55;;;23.70;69.20;;;;;;5020502;28;20049;-33
2022/09/04 12:39:06;;;;;;;1.23;1.00;;;23.80;64.20;;;;;;5083597;28;20059;-33
2022/09/04 12:41:50;;;;;;;2.10;1.20;;;23.60;63.40;;;;;;5085489;28;20424;-32
2022/09/04 12:44:34;;;;;;;1.00;1.00;;;23.60;63.40;;;;;;5085213;28;20477;-34
2022/09/04 12:47:15;;;;;;;1.10;1.10;;;23.60;64.50;;;;;;5066737;28;20055;-32
2022/09/04 12:49:58;;;;;;;1.17;0.93;;;23.70;68.50;;;;;;5089062;28;20028;-30
2022/09/04 12:52:55;;;;;;;1.10;1.10;;;23.60;65.50;;;;;;5086635;28;20118;-32
2022/09/04 12:55:35;;;;;;;2.00;1.15;;;23.70;64.50;;;;;;5086270;28;20316;-32
2022/09/04 12:58:37;;;;;;;1.13;0.90;;;23.80;71.40;;;;;;5083090;28;20085;-31
2022/09/04 13:01:39;;;;;;;1.40;1.30;;;24.00;65.10;;;;;;5082669;28;20059;-32
2022/09/04 13:04:15;;;;;;;2.03;1.30;;;24.30;65.30;;;;;;5088559;28;20028;-33
2022/09/04 13:07:10;;;;;;;1.55;1.27;;;24.10;63.10;;;;;;5084344;28;20075;-32
2022/09/04 13:09:52;;;;;;;1.52;1.15;;;24.20;62.80;;;;;;5084102;28;20452;-35
2022/09/04 13:12:23;;;;;;;15.27;2.25;;;24.20;62.30;;;;;;5085613;28;20503;-33
2022/09/04 13:15:10;;;;;;;11.40;1.60;;;24.00;62.70;;;;;;5086067;28;20392;-30
2022/09/04 13:17:52;;;;;;;4.70;1.30;;;24.10;63.10;;;;;;5085713;28;20028;-31
2022/09/04 13:20:21;;;;;;;2.20;1.10;;;24.10;71.40;;;;;;5082678;28;20101;-32
2022/09/04 13:23:11;;;;;;;1.13;1.13;;;24.20;67.40;;;;;;5085563;28;20028;-31
2022/09/04 13:25:43;;;;;;;4.03;1.30;;;24.30;64.20;;;;;;5082316;28;20027;-32
2022/09/04 13:28:34;;;;;;;4.15;1.40;;;24.70;69.30;;;;;;5080149;28;20074;-32
2022/09/04 13:31:19;;;;;;;3.20;1.50;;;25.00;65.60;;;;;;5086136;28;20036;-31
2022/09/04 13:34:02;;;;;;;2.05;1.10;;;24.90;61.90;;;;;;5087684;28;20028;-31
2022/09/04 13:37:03;;;;;;;21.77;2.85;;;24.80;63.40;;;;;;5086730;28;20036;-31
2022/09/04 13:40:07;;;;;;;66.85;7.70;;;24.40;61.50;;;;;;5086941;28;20024;-33
2022/09/04 13:43:19;;;;;;;168.82;19.85;;;24.40;62.90;;;;;;5082138;28;20549;-31
2022/09/04 13:46:10;;;;;;;203.93;22.88;;;24.30;61.70;;;;;;5045510;28;20059;-33
2022/09/04 13:48:54;;;;;;;4.43;1.50;;;24.10;62.20;;;;;;5088789;28;20466;-36
2022/09/04 13:51:31;;;;;;;2.70;1.55;;;23.90;60.20;;;;;;5082923;28;20559;-35
2022/09/04 13:54:00;;;;;;;2.05;1.13;;;23.80;61.50;;;;;;5068505;28;20027;-30
2022/09/04 13:56:40;;;;;;;1.40;1.30;;;23.80;60.50;;;;;;5079561;28;20044;-34
2022/09/04 13:59:09;;;;;;;1.30;1.20;;;23.90;62.70;;;;;;5083380;28;20054;-31
2022/09/04 14:01:44;;;;;;;2.63;1.20;;;24.20;64.40;;;;;;5065174;28;20221;-33
2022/09/04 14:04:15;;;;;;;1.63;1.40;;;24.30;66.10;;;;;;5086069;28;20110;-33
2022/09/04 14:06:43;;;;;;;1.27;1.13;;;24.50;64.80;;;;;;5077558;28;20024;-32
2022/09/04 14:09:09;;;;;;;1.30;1.20;;;24.50;64.60;;;;;;5083950;28;20039;-32
2022/09/04 14:12:09;;;;;;;2.08;1.30;;;24.40;60.40;;;;;;5084148;28;20024;-34
2022/09/04 14:14:50;;;;;;;1.48;1.38;;;24.40;60.10;;;;;;5084440;28;20028;-34
2022/09/04 14:17:25;;;;;;;2.55;1.50;;;24.30;62.30;;;;;;5082858;28;20355;-33
2022/09/04 14:20:17;;;;;;;1.20;1.10;;;24.10;63.70;;;;;;5085415;28;20523;-33
2022/09/04 14:22:48;;;;;;;1.42;1.33;;;24.20;65.70;;;;;;5078921;28;20028;-31
2022/09/04 14:25:38;;;;;;;1.50;1.40;;;24.30;66.20;;;;;;5081453;28;20035;-32
2022/09/04 14:28:22;;;;;;;1.30;1.20;;;24.40;64.70;;;;;;5083981;28;20450;-32